sensor_id;sensor_type;location;lat;lon;timestamp;P1;durP1;ratioP1;P2;durP2;ratioP2
25351;SDS011;13304;48.464;8.712;2023-03-07T00:00:33;19.77;;;10.20;;
25351;SDS011;13304;48.464;8.712;2023-03-07T00:02:58;25.70;;;10.43;;
25351;SDS011;13304;48.464;8.712;2023-03-07T00:05:24;17.37;;;9.93;;
25351;SDS011;13304;48.464;8.712;2023-03-07T00:07:50;20.47;;;10.77;;
25351;SDS011;13304;48.464;8.712;2023-03-07T00:10:16;19.50;;;10.82;;
25351;SDS011;13304;48.464;8.712;2023-03-07T00:12:42;18.73;;;10.10;;
25351;SDS011;13304;48.464;8.712;2023-03-07T00:15:07;19.73;;;10.93;;
25351;SDS011;13304;48.464;8.712;2023-03-07T00:17:35;20.93;;;10.27;;
25351;SDS011;13304;48.464;8.712;2023-03-07T00:20:01;23.20;;;10.87;;
25351;SDS011;13304;48.464;8.712;2023-03-07T00:22:30;20.60;;;11.00;;
25351;SDS011;13304;48.464;8.712;2023-03-07T00:24:57;20.07;;;10.90;;
25351;SDS011;13304;48.464;8.712;2023-03-07T00:27:23;26.58;;;11.98;;
25351;SDS011;13304;48.464;8.712;2023-03-07T00:29:48;23.80;;;12.23;;
25351;SDS011;13304;48.464;8.712;2023-03-07T00:32:14;19.92;;;11.15;;
25351;SDS011;13304;48.464;8.712;2023-03-07T00:34:40;17.77;;;10.65;;
25351;SDS011;13304;48.464;8.712;2023-03-07T00:37:06;21.63;;;11.00;;
25351;SDS011;13304;48.464;8.712;2023-03-07T00:39:32;18.83;;;11.03;;
25351;SDS011;13304;48.464;8.712;2023-03-07T00:41:58;19.33;;;10.17;;
25351;SDS011;13304;48.464;8.712;2023-03-07T00:44:24;19.67;;;10.43;;
25351;SDS011;13304;48.464;8.712;2023-03-07T00:46:51;26.43;;;12.30;;
25351;SDS011;13304;48.464;8.712;2023-03-07T00:49:17;24.27;;;11.43;;
25351;SDS011;13304;48.464;8.712;2023-03-07T00:51:44;21.13;;;10.67;;
25351;SDS011;13304;48.464;8.712;2023-03-07T00:54:10;26.83;;;10.43;;
25351;SDS011;13304;48.464;8.712;2023-03-07T00:56:36;21.13;;;11.03;;
25351;SDS011;13304;48.464;8.712;2023-03-07T00:59:02;19.53;;;11.10;;
25351;SDS011;13304;48.464;8.712;2023-03-07T01:01:28;20.13;;;11.13;;
25351;SDS011;13304;48.464;8.712;2023-03-07T01:03:54;20.53;;;11.20;;
25351;SDS011;13304;48.464;8.712;2023-03-07T01:06:21;22.77;;;11.87;;
25351;SDS011;13304;48.464;8.712;2023-03-07T01:08:52;26.23;;;12.00;;
25351;SDS011;13304;48.464;8.712;2023-03-07T01:11:19;24.83;;;12.50;;
25351;SDS011;13304;48.464;8.712;2023-03-07T01:13:45;19.13;;;11.00;;
25351;SDS011;13304;48.464;8.712;2023-03-07T01:16:13;20.53;;;11.47;;
25351;SDS011;13304;48.464;8.712;2023-03-07T01:18:42;21.87;;;12.67;;
25351;SDS011;13304;48.464;8.712;2023-03-07T01:21:13;20.23;;;10.90;;
25351;SDS011;13304;48.464;8.712;2023-03-07T01:23:41;25.23;;;12.82;;
25351;SDS011;13304;48.464;8.712;2023-03-07T01:26:10;20.52;;;11.07;;
25351;SDS011;13304;48.464;8.712;2023-03-07T01:28:40;22.67;;;12.15;;
25351;SDS011;13304;48.464;8.712;2023-03-07T01:31:06;21.83;;;11.73;;
25351;SDS011;13304;48.464;8.712;2023-03-07T01:33:32;20.13;;;11.68;;
25351;SDS011;13304;48.464;8.712;2023-03-07T01:35:58;20.77;;;11.70;;
25351;SDS011;13304;48.464;8.712;2023-03-07T01:38:23;19.60;;;11.15;;
25351;SDS011;13304;48.464;8.712;2023-03-07T01:40:49;22.00;;;12.43;;
25351;SDS011;13304;48.464;8.712;2023-03-07T01:43:28;24.30;;;12.23;;
25351;SDS011;13304;48.464;8.712;2023-03-07T01:51:31;22.03;;;11.60;;
25351;SDS011;13304;48.464;8.712;2023-03-07T01:54:00;20.33;;;11.85;;
25351;SDS011;13304;48.464;8.712;2023-03-07T01:56:27;23.17;;;12.48;;
25351;SDS011;13304;48.464;8.712;2023-03-07T01:58:54;21.52;;;12.20;;
25351;SDS011;13304;48.464;8.712;2023-03-07T02:01:20;23.77;;;12.43;;
25351;SDS011;13304;48.464;8.712;2023-03-07T02:03:55;24.23;;;11.82;;
25351;SDS011;13304;48.464;8.712;2023-03-07T02:06:32;23.55;;;13.13;;
25351;SDS011;13304;48.464;8.712;2023-03-07T02:09:01;22.83;;;11.90;;
25351;SDS011;13304;48.464;8.712;2023-03-07T02:11:29;23.98;;;12.13;;
25351;SDS011;13304;48.464;8.712;2023-03-07T02:13:55;24.38;;;12.10;;
25351;SDS011;13304;48.464;8.712;2023-03-07T02:16:21;21.40;;;12.43;;
25351;SDS011;13304;48.464;8.712;2023-03-07T02:18:47;22.47;;;12.63;;
25351;SDS011;13304;48.464;8.712;2023-03-07T02:29:05;22.63;;;12.73;;
25351;SDS011;13304;48.464;8.712;2023-03-07T02:31:31;23.33;;;12.83;;
25351;SDS011;13304;48.464;8.712;2023-03-07T02:33:57;29.13;;;13.27;;
25351;SDS011;13304;48.464;8.712;2023-03-07T02:36:25;22.63;;;12.67;;
25351;SDS011;13304;48.464;8.712;2023-03-07T02:38:55;24.73;;;13.70;;
25351;SDS011;13304;48.464;8.712;2023-03-07T02:41:23;24.50;;;13.13;;
25351;SDS011;13304;48.464;8.712;2023-03-07T02:43:52;22.17;;;12.90;;
25351;SDS011;13304;48.464;8.712;2023-03-07T02:46:18;24.83;;;12.50;;
25351;SDS011;13304;48.464;8.712;2023-03-07T02:48:44;20.90;;;12.57;;
25351;SDS011;13304;48.464;8.712;2023-03-07T02:51:11;22.67;;;12.80;;
25351;SDS011;13304;48.464;8.712;2023-03-07T02:53:37;22.17;;;12.13;;
25351;SDS011;13304;48.464;8.712;2023-03-07T02:56:03;23.43;;;12.97;;
25351;SDS011;13304;48.464;8.712;2023-03-07T02:58:30;22.23;;;12.43;;
25351;SDS011;13304;48.464;8.712;2023-03-07T03:00:55;19.10;;;11.43;;
25351;SDS011;13304;48.464;8.712;2023-03-07T03:03:21;23.27;;;12.83;;
25351;SDS011;13304;48.464;8.712;2023-03-07T03:05:47;28.80;;;13.30;;
25351;SDS011;13304;48.464;8.712;2023-03-07T03:08:13;25.03;;;12.47;;
25351;SDS011;13304;48.464;8.712;2023-03-07T03:10:38;24.10;;;11.97;;
25351;SDS011;13304;48.464;8.712;2023-03-07T03:13:04;26.83;;;12.07;;
25351;SDS011;13304;48.464;8.712;2023-03-07T03:15:30;22.53;;;11.90;;
25351;SDS011;13304;48.464;8.712;2023-03-07T03:17:56;21.83;;;11.87;;
25351;SDS011;13304;48.464;8.712;2023-03-07T03:20:22;21.03;;;11.80;;
25351;SDS011;13304;48.464;8.712;2023-03-07T03:22:50;21.30;;;11.70;;
25351;SDS011;13304;48.464;8.712;2023-03-07T03:25:16;20.33;;;11.80;;
25351;SDS011;13304;48.464;8.712;2023-03-07T03:27:42;21.73;;;12.23;;
25351;SDS011;13304;48.464;8.712;2023-03-07T03:30:08;24.67;;;12.93;;
25351;SDS011;13304;48.464;8.712;2023-03-07T03:32:36;23.30;;;11.87;;
25351;SDS011;13304;48.464;8.712;2023-03-07T03:35:03;23.10;;;12.30;;
25351;SDS011;13304;48.464;8.712;2023-03-07T03:37:30;23.20;;;11.83;;
25351;SDS011;13304;48.464;8.712;2023-03-07T03:39:56;21.93;;;12.43;;
25351;SDS011;13304;48.464;8.712;2023-03-07T03:42:21;22.30;;;11.80;;
25351;SDS011;13304;48.464;8.712;2023-03-07T03:44:48;27.90;;;12.47;;
25351;SDS011;13304;48.464;8.712;2023-03-07T03:47:14;22.50;;;12.33;;
25351;SDS011;13304;48.464;8.712;2023-03-07T03:49:40;19.63;;;11.80;;
25351;SDS011;13304;48.464;8.712;2023-03-07T03:52:05;20.63;;;11.73;;
25351;SDS011;13304;48.464;8.712;2023-03-07T03:54:31;21.53;;;12.33;;
25351;SDS011;13304;48.464;8.712;2023-03-07T03:56:57;24.23;;;11.90;;
25351;SDS011;13304;48.464;8.712;2023-03-07T03:59:23;23.43;;;12.40;;
25351;SDS011;13304;48.464;8.712;2023-03-07T04:01:49;23.30;;;12.13;;
25351;SDS011;13304;48.464;8.712;2023-03-07T04:04:18;24.30;;;11.47;;
25351;SDS011;13304;48.464;8.712;2023-03-07T04:06:43;20.70;;;11.50;;
25351;SDS011;13304;48.464;8.712;2023-03-07T04:09:09;20.77;;;11.90;;
25351;SDS011;13304;48.464;8.712;2023-03-07T04:11:35;22.90;;;11.83;;
25351;SDS011;13304;48.464;8.712;2023-03-07T04:14:01;26.93;;;14.73;;
25351;SDS011;13304;48.464;8.712;2023-03-07T04:16:27;28.00;;;15.97;;
25351;SDS011;13304;48.464;8.712;2023-03-07T04:18:53;23.47;;;12.77;;
25351;SDS011;13304;48.464;8.712;2023-03-07T04:21:20;20.10;;;11.87;;
25351;SDS011;13304;48.464;8.712;2023-03-07T04:23:46;23.40;;;11.90;;
25351;SDS011;13304;48.464;8.712;2023-03-07T04:26:19;24.00;;;12.43;;
25351;SDS011;13304;48.464;8.712;2023-03-07T04:28:45;24.90;;;12.43;;
25351;SDS011;13304;48.464;8.712;2023-03-07T04:33:43;23.77;;;11.70;;
25351;SDS011;13304;48.464;8.712;2023-03-07T04:36:09;21.97;;;12.37;;
25351;SDS011;13304;48.464;8.712;2023-03-07T04:38:36;23.07;;;11.77;;
25351;SDS011;13304;48.464;8.712;2023-03-07T04:41:03;21.47;;;11.80;;
25351;SDS011;13304;48.464;8.712;2023-03-07T04:43:29;20.93;;;11.00;;
25351;SDS011;13304;48.464;8.712;2023-03-07T04:45:55;19.37;;;11.10;;
25351;SDS011;13304;48.464;8.712;2023-03-07T04:48:21;24.37;;;11.77;;
25351;SDS011;13304;48.464;8.712;2023-03-07T04:50:48;23.23;;;11.67;;
25351;SDS011;13304;48.464;8.712;2023-03-07T04:53:15;20.53;;;11.50;;
25351;SDS011;13304;48.464;8.712;2023-03-07T04:55:41;21.77;;;11.07;;
25351;SDS011;13304;48.464;8.712;2023-03-07T04:58:07;23.20;;;12.50;;
25351;SDS011;13304;48.464;8.712;2023-03-07T05:00:37;25.23;;;12.35;;
25351;SDS011;13304;48.464;8.712;2023-03-07T05:03:05;19.10;;;11.37;;
25351;SDS011;13304;48.464;8.712;2023-03-07T05:05:31;22.43;;;12.07;;
25351;SDS011;13304;48.464;8.712;2023-03-07T05:07:57;18.40;;;11.07;;
25351;SDS011;13304;48.464;8.712;2023-03-07T05:10:23;20.17;;;10.90;;
25351;SDS011;13304;48.464;8.712;2023-03-07T05:12:48;22.77;;;11.40;;
25351;SDS011;13304;48.464;8.712;2023-03-07T05:15:14;19.83;;;11.07;;
25351;SDS011;13304;48.464;8.712;2023-03-07T05:17:40;22.97;;;11.60;;
25351;SDS011;13304;48.464;8.712;2023-03-07T05:20:06;20.23;;;11.07;;
25351;SDS011;13304;48.464;8.712;2023-03-07T05:22:34;24.58;;;11.60;;
25351;SDS011;13304;48.464;8.712;2023-03-07T05:25:00;23.13;;;12.03;;
25351;SDS011;13304;48.464;8.712;2023-03-07T05:27:26;25.13;;;12.40;;
25351;SDS011;13304;48.464;8.712;2023-03-07T05:29:51;20.97;;;11.83;;
25351;SDS011;13304;48.464;8.712;2023-03-07T05:32:17;25.03;;;12.27;;
25351;SDS011;13304;48.464;8.712;2023-03-07T05:34:43;18.43;;;10.50;;
25351;SDS011;13304;48.464;8.712;2023-03-07T05:37:11;21.63;;;11.93;;
25351;SDS011;13304;48.464;8.712;2023-03-07T05:39:37;20.17;;;11.60;;
25351;SDS011;13304;48.464;8.712;2023-03-07T05:42:03;21.40;;;12.13;;
25351;SDS011;13304;48.464;8.712;2023-03-07T05:44:29;20.90;;;11.80;;
25351;SDS011;13304;48.464;8.712;2023-03-07T05:46:55;22.07;;;11.37;;
25351;SDS011;13304;48.464;8.712;2023-03-07T05:49:20;20.27;;;11.33;;
25351;SDS011;13304;48.464;8.712;2023-03-07T05:51:46;20.80;;;11.80;;
25351;SDS011;13304;48.464;8.712;2023-03-07T05:54:12;22.43;;;11.90;;
25351;SDS011;13304;48.464;8.712;2023-03-07T05:56:38;20.50;;;10.43;;
25351;SDS011;13304;48.464;8.712;2023-03-07T05:59:03;19.90;;;10.70;;
25351;SDS011;13304;48.464;8.712;2023-03-07T06:01:33;18.30;;;10.87;;
25351;SDS011;13304;48.464;8.712;2023-03-07T06:03:59;20.93;;;11.30;;
25351;SDS011;13304;48.464;8.712;2023-03-07T06:06:24;18.50;;;10.33;;
25351;SDS011;13304;48.464;8.712;2023-03-07T06:08:50;19.13;;;11.17;;
25351;SDS011;13304;48.464;8.712;2023-03-07T06:11:16;22.33;;;10.87;;
25351;SDS011;13304;48.464;8.712;2023-03-07T06:13:42;20.70;;;10.80;;
25351;SDS011;13304;48.464;8.712;2023-03-07T06:16:07;22.10;;;10.53;;
25351;SDS011;13304;48.464;8.712;2023-03-07T06:18:33;18.73;;;10.10;;
25351;SDS011;13304;48.464;8.712;2023-03-07T06:21:00;19.97;;;10.73;;
25351;SDS011;13304;48.464;8.712;2023-03-07T06:23:31;18.33;;;9.50;;
25351;SDS011;13304;48.464;8.712;2023-03-07T06:25:59;19.52;;;10.65;;
25351;SDS011;13304;48.464;8.712;2023-03-07T06:28:26;25.50;;;10.97;;
25351;SDS011;13304;48.464;8.712;2023-03-07T06:30:52;21.13;;;10.03;;
25351;SDS011;13304;48.464;8.712;2023-03-07T06:33:18;18.33;;;9.80;;
25351;SDS011;13304;48.464;8.712;2023-03-07T06:35:45;18.27;;;9.30;;
25351;SDS011;13304;48.464;8.712;2023-03-07T06:38:11;19.20;;;11.23;;
25351;SDS011;13304;48.464;8.712;2023-03-07T06:40:39;21.17;;;11.27;;
25351;SDS011;13304;48.464;8.712;2023-03-07T06:43:05;17.60;;;10.10;;
25351;SDS011;13304;48.464;8.712;2023-03-07T06:45:30;16.67;;;10.37;;
25351;SDS011;13304;48.464;8.712;2023-03-07T06:47:56;22.40;;;9.88;;
25351;SDS011;13304;48.464;8.712;2023-03-07T06:50:22;17.73;;;9.90;;
25351;SDS011;13304;48.464;8.712;2023-03-07T06:52:48;18.88;;;10.63;;
25351;SDS011;13304;48.464;8.712;2023-03-07T06:55:16;19.07;;;10.20;;
25351;SDS011;13304;48.464;8.712;2023-03-07T06:57:42;18.15;;;9.73;;
25351;SDS011;13304;48.464;8.712;2023-03-07T07:00:08;22.03;;;11.03;;
25351;SDS011;13304;48.464;8.712;2023-03-07T07:02:35;18.23;;;9.80;;
25351;SDS011;13304;48.464;8.712;2023-03-07T07:05:01;22.48;;;10.43;;
25351;SDS011;13304;48.464;8.712;2023-03-07T07:07:27;20.60;;;10.68;;
25351;SDS011;13304;48.464;8.712;2023-03-07T07:09:53;21.73;;;11.02;;
25351;SDS011;13304;48.464;8.712;2023-03-07T07:12:19;17.42;;;9.82;;
25351;SDS011;13304;48.464;8.712;2023-03-07T07:14:45;16.80;;;10.43;;
25351;SDS011;13304;48.464;8.712;2023-03-07T07:17:11;19.38;;;10.02;;
25351;SDS011;13304;48.464;8.712;2023-03-07T07:19:37;17.23;;;10.10;;
25351;SDS011;13304;48.464;8.712;2023-03-07T07:22:03;18.65;;;10.80;;
25351;SDS011;13304;48.464;8.712;2023-03-07T07:24:32;19.58;;;10.43;;
25351;SDS011;13304;48.464;8.712;2023-03-07T07:26:58;17.85;;;9.43;;
25351;SDS011;13304;48.464;8.712;2023-03-07T07:29:24;19.23;;;9.93;;
25351;SDS011;13304;48.464;8.712;2023-03-07T07:31:50;16.95;;;10.40;;
25351;SDS011;13304;48.464;8.712;2023-03-07T07:34:15;20.38;;;10.48;;
25351;SDS011;13304;48.464;8.712;2023-03-07T07:36:41;17.70;;;10.43;;
25351;SDS011;13304;48.464;8.712;2023-03-07T07:39:07;17.52;;;9.55;;
25351;SDS011;13304;48.464;8.712;2023-03-07T07:41:34;16.83;;;9.70;;
25351;SDS011;13304;48.464;8.712;2023-03-07T07:44:00;18.20;;;9.93;;
25351;SDS011;13304;48.464;8.712;2023-03-07T07:46:26;21.02;;;10.73;;
25351;SDS011;13304;48.464;8.712;2023-03-07T07:48:53;17.45;;;9.30;;
25351;SDS011;13304;48.464;8.712;2023-03-07T07:51:19;17.00;;;9.35;;
25351;SDS011;13304;48.464;8.712;2023-03-07T07:53:45;19.67;;;10.27;;
25351;SDS011;13304;48.464;8.712;2023-03-07T07:56:11;19.00;;;10.05;;
25351;SDS011;13304;48.464;8.712;2023-03-07T07:58:37;19.15;;;9.93;;
25351;SDS011;13304;48.464;8.712;2023-03-07T08:01:13;18.40;;;9.40;;
25351;SDS011;13304;48.464;8.712;2023-03-07T08:03:43;17.48;;;8.80;;
25351;SDS011;13304;48.464;8.712;2023-03-07T08:06:09;15.43;;;8.65;;
25351;SDS011;13304;48.464;8.712;2023-03-07T08:08:35;14.38;;;8.82;;
25351;SDS011;13304;48.464;8.712;2023-03-07T08:11:01;19.70;;;10.15;;
25351;SDS011;13304;48.464;8.712;2023-03-07T08:13:27;21.38;;;10.10;;
25351;SDS011;13304;48.464;8.712;2023-03-07T08:15:53;21.63;;;9.80;;
25351;SDS011;13304;48.464;8.712;2023-03-07T08:18:19;16.23;;;9.00;;
25351;SDS011;13304;48.464;8.712;2023-03-07T08:20:45;19.63;;;9.68;;
25351;SDS011;13304;48.464;8.712;2023-03-07T08:23:11;15.88;;;8.80;;
25351;SDS011;13304;48.464;8.712;2023-03-07T08:25:36;18.38;;;9.18;;
25351;SDS011;13304;48.464;8.712;2023-03-07T08:28:02;17.70;;;9.20;;
25351;SDS011;13304;48.464;8.712;2023-03-07T08:30:30;22.60;;;9.65;;
25351;SDS011;13304;48.464;8.712;2023-03-07T08:32:57;22.88;;;10.40;;
25351;SDS011;13304;48.464;8.712;2023-03-07T08:35:24;18.77;;;9.20;;
25351;SDS011;13304;48.464;8.712;2023-03-07T08:37:54;18.60;;;9.27;;
25351;SDS011;13304;48.464;8.712;2023-03-07T08:40:22;19.98;;;9.07;;
25351;SDS011;13304;48.464;8.712;2023-03-07T08:42:50;15.82;;;8.25;;
25351;SDS011;13304;48.464;8.712;2023-03-07T08:45:16;18.52;;;8.77;;
25351;SDS011;13304;48.464;8.712;2023-03-07T08:47:42;14.60;;;8.70;;
25351;SDS011;13304;48.464;8.712;2023-03-07T08:50:08;16.77;;;9.93;;
25351;SDS011;13304;48.464;8.712;2023-03-07T08:52:34;16.40;;;8.90;;
25351;SDS011;13304;48.464;8.712;2023-03-07T08:54:59;17.52;;;9.38;;
25351;SDS011;13304;48.464;8.712;2023-03-07T08:57:25;14.40;;;8.50;;
25351;SDS011;13304;48.464;8.712;2023-03-07T08:59:51;14.93;;;8.90;;
25351;SDS011;13304;48.464;8.712;2023-03-07T09:02:17;14.98;;;8.32;;
25351;SDS011;13304;48.464;8.712;2023-03-07T09:04:42;17.52;;;9.00;;
25351;SDS011;13304;48.464;8.712;2023-03-07T09:07:09;16.45;;;8.43;;
25351;SDS011;13304;48.464;8.712;2023-03-07T09:09:35;16.77;;;8.85;;
25351;SDS011;13304;48.464;8.712;2023-03-07T09:12:01;19.88;;;9.00;;
25351;SDS011;13304;48.464;8.712;2023-03-07T09:14:27;13.98;;;8.73;;
25351;SDS011;13304;48.464;8.712;2023-03-07T09:16:52;14.60;;;7.95;;
25351;SDS011;13304;48.464;8.712;2023-03-07T09:19:18;16.17;;;8.30;;
25351;SDS011;13304;48.464;8.712;2023-03-07T09:21:44;14.60;;;8.10;;
25351;SDS011;13304;48.464;8.712;2023-03-07T09:24:09;16.13;;;7.85;;
25351;SDS011;13304;48.464;8.712;2023-03-07T09:26:35;13.30;;;8.38;;
25351;SDS011;13304;48.464;8.712;2023-03-07T09:29:01;14.65;;;7.50;;
25351;SDS011;13304;48.464;8.712;2023-03-07T09:31:27;17.27;;;8.07;;
25351;SDS011;13304;48.464;8.712;2023-03-07T09:33:52;15.90;;;8.40;;
25351;SDS011;13304;48.464;8.712;2023-03-07T09:36:18;12.25;;;7.15;;
25351;SDS011;13304;48.464;8.712;2023-03-07T09:38:45;14.30;;;8.55;;
25351;SDS011;13304;48.464;8.712;2023-03-07T09:49:46;15.40;;;7.72;;
25351;SDS011;13304;48.464;8.712;2023-03-07T09:52:16;14.65;;;7.82;;
25351;SDS011;13304;48.464;8.712;2023-03-07T09:54:56;14.73;;;7.47;;
25351;SDS011;13304;48.464;8.712;2023-03-07T09:57:27;16.52;;;8.65;;
25351;SDS011;13304;48.464;8.712;2023-03-07T09:59:59;12.75;;;7.47;;
25351;SDS011;13304;48.464;8.712;2023-03-07T10:03:01;15.38;;;7.80;;
25351;SDS011;13304;48.464;8.712;2023-03-07T10:05:42;16.83;;;8.23;;
25351;SDS011;13304;48.464;8.712;2023-03-07T10:08:15;13.20;;;8.15;;
25351;SDS011;13304;48.464;8.712;2023-03-07T10:17:16;15.82;;;8.30;;
25351;SDS011;13304;48.464;8.712;2023-03-07T10:19:43;15.95;;;8.68;;
25351;SDS011;13304;48.464;8.712;2023-03-07T10:25:39;16.02;;;8.85;;
25351;SDS011;13304;48.464;8.712;2023-03-07T10:28:19;18.13;;;8.40;;
25351;SDS011;13304;48.464;8.712;2023-03-07T10:30:51;18.08;;;9.00;;
25351;SDS011;13304;48.464;8.712;2023-03-07T10:33:23;20.55;;;9.00;;
25351;SDS011;13304;48.464;8.712;2023-03-07T10:35:51;21.05;;;8.65;;
25351;SDS011;13304;48.464;8.712;2023-03-07T10:38:42;22.98;;;8.57;;
25351;SDS011;13304;48.464;8.712;2023-03-07T10:41:14;16.05;;;8.75;;
25351;SDS011;13304;48.464;8.712;2023-03-07T10:43:41;14.38;;;8.52;;
25351;SDS011;13304;48.464;8.712;2023-03-07T10:46:13;16.15;;;9.25;;
25351;SDS011;13304;48.464;8.712;2023-03-07T10:48:41;15.63;;;8.82;;
25351;SDS011;13304;48.464;8.712;2023-03-07T10:54:07;16.45;;;9.25;;
25351;SDS011;13304;48.464;8.712;2023-03-07T10:57:00;16.38;;;8.45;;
25351;SDS011;13304;48.464;8.712;2023-03-07T10:59:28;17.52;;;8.93;;
25351;SDS011;13304;48.464;8.712;2023-03-07T11:01:56;16.60;;;9.02;;
25351;SDS011;13304;48.464;8.712;2023-03-07T11:04:24;14.77;;;8.63;;
25351;SDS011;13304;48.464;8.712;2023-03-07T11:06:55;15.27;;;8.05;;
25351;SDS011;13304;48.464;8.712;2023-03-07T11:14:21;17.15;;;8.98;;
25351;SDS011;13304;48.464;8.712;2023-03-07T11:21:58;16.67;;;9.45;;
25351;SDS011;13304;48.464;8.712;2023-03-07T11:24:26;15.77;;;8.95;;
25351;SDS011;13304;48.464;8.712;2023-03-07T11:26:57;16.10;;;8.67;;
25351;SDS011;13304;48.464;8.712;2023-03-07T11:29:24;15.65;;;8.95;;
25351;SDS011;13304;48.464;8.712;2023-03-07T11:32:01;15.85;;;8.25;;
25351;SDS011;13304;48.464;8.712;2023-03-07T11:37:52;22.42;;;9.02;;
25351;SDS011;13304;48.464;8.712;2023-03-07T11:40:55;15.55;;;9.10;;
25351;SDS011;13304;48.464;8.712;2023-03-07T11:46:05;15.70;;;9.50;;
25351;SDS011;13304;48.464;8.712;2023-03-07T12:06:04;18.15;;;10.00;;
25351;SDS011;13304;48.464;8.712;2023-03-07T12:14:03;15.27;;;7.53;;
25351;SDS011;13304;48.464;8.712;2023-03-07T12:16:56;13.60;;;7.95;;
25351;SDS011;13304;48.464;8.712;2023-03-07T12:25:42;12.40;;;7.75;;
25351;SDS011;13304;48.464;8.712;2023-03-07T12:30:53;13.30;;;7.43;;
25351;SDS011;13304;48.464;8.712;2023-03-07T12:33:39;13.30;;;7.13;;
25351;SDS011;13304;48.464;8.712;2023-03-07T12:36:26;12.20;;;7.45;;
25351;SDS011;13304;48.464;8.712;2023-03-07T12:39:29;12.98;;;7.68;;
25351;SDS011;13304;48.464;8.712;2023-03-07T12:56:05;12.38;;;7.68;;
25351;SDS011;13304;48.464;8.712;2023-03-07T13:06:29;12.52;;;6.75;;
25351;SDS011;13304;48.464;8.712;2023-03-07T13:08:57;11.48;;;6.70;;
25351;SDS011;13304;48.464;8.712;2023-03-07T13:11:26;14.23;;;7.15;;
25351;SDS011;13304;48.464;8.712;2023-03-07T13:13:58;11.98;;;7.07;;
25351;SDS011;13304;48.464;8.712;2023-03-07T13:21:55;13.77;;;7.15;;
25351;SDS011;13304;48.464;8.712;2023-03-07T13:24:34;13.45;;;7.28;;
25351;SDS011;13304;48.464;8.712;2023-03-07T13:27:14;11.98;;;6.97;;
25351;SDS011;13304;48.464;8.712;2023-03-07T13:41:07;10.52;;;5.93;;
25351;SDS011;13304;48.464;8.712;2023-03-07T13:51:22;10.43;;;5.78;;
25351;SDS011;13304;48.464;8.712;2023-03-07T13:53:55;11.20;;;6.15;;
25351;SDS011;13304;48.464;8.712;2023-03-07T13:56:28;11.82;;;5.88;;
25351;SDS011;13304;48.464;8.712;2023-03-07T14:01:43;11.07;;;6.20;;
25351;SDS011;13304;48.464;8.712;2023-03-07T14:04:20;12.88;;;6.28;;
25351;SDS011;13304;48.464;8.712;2023-03-07T14:10:07;11.32;;;5.43;;
25351;SDS011;13304;48.464;8.712;2023-03-07T14:26:11;9.90;;;6.00;;
25351;SDS011;13304;48.464;8.712;2023-03-07T14:31:36;9.73;;;5.55;;
25351;SDS011;13304;48.464;8.712;2023-03-07T14:37:33;9.95;;;5.18;;
25351;SDS011;13304;48.464;8.712;2023-03-07T14:40:08;8.23;;;5.20;;
25351;SDS011;13304;48.464;8.712;2023-03-07T14:42:44;7.63;;;4.80;;
25351;SDS011;13304;48.464;8.712;2023-03-07T14:48:37;6.47;;;4.45;;
25351;SDS011;13304;48.464;8.712;2023-03-07T14:51:11;9.20;;;4.88;;
25351;SDS011;13304;48.464;8.712;2023-03-07T14:53:40;8.05;;;4.32;;
25351;SDS011;13304;48.464;8.712;2023-03-07T14:56:07;8.43;;;4.47;;
25351;SDS011;13304;48.464;8.712;2023-03-07T14:58:35;8.32;;;4.38;;
25351;SDS011;13304;48.464;8.712;2023-03-07T15:01:11;6.82;;;4.28;;
25351;SDS011;13304;48.464;8.712;2023-03-07T15:06:20;11.18;;;3.97;;
25351;SDS011;13304;48.464;8.712;2023-03-07T15:08:47;6.50;;;3.92;;
25351;SDS011;13304;48.464;8.712;2023-03-07T15:11:26;6.82;;;4.20;;
25351;SDS011;13304;48.464;8.712;2023-03-07T15:16:35;9.50;;;4.60;;
25351;SDS011;13304;48.464;8.712;2023-03-07T15:21:41;7.97;;;4.72;;
25351;SDS011;13304;48.464;8.712;2023-03-07T15:24:19;9.27;;;4.63;;
25351;SDS011;13304;48.464;8.712;2023-03-07T15:26:52;6.47;;;4.45;;
25351;SDS011;13304;48.464;8.712;2023-03-07T15:29:23;8.55;;;4.75;;
25351;SDS011;13304;48.464;8.712;2023-03-07T15:34:31;8.45;;;4.97;;
25351;SDS011;13304;48.464;8.712;2023-03-07T15:40:01;8.70;;;4.65;;
25351;SDS011;13304;48.464;8.712;2023-03-07T15:42:48;8.32;;;4.63;;
25351;SDS011;13304;48.464;8.712;2023-03-07T15:45:35;10.57;;;5.15;;
25351;SDS011;13304;48.464;8.712;2023-03-07T15:48:10;7.93;;;4.72;;
25351;SDS011;13304;48.464;8.712;2023-03-07T15:50:49;10.77;;;5.05;;
25351;SDS011;13304;48.464;8.712;2023-03-07T15:53:24;11.45;;;5.50;;
25351;SDS011;13304;48.464;8.712;2023-03-07T15:55:55;8.98;;;5.40;;
25351;SDS011;13304;48.464;8.712;2023-03-07T15:58:29;9.00;;;5.03;;
25351;SDS011;13304;48.464;8.712;2023-03-07T16:01:05;9.27;;;5.43;;
25351;SDS011;13304;48.464;8.712;2023-03-07T16:06:51;7.63;;;4.80;;
25351;SDS011;13304;48.464;8.712;2023-03-07T16:09:17;8.63;;;5.15;;
25351;SDS011;13304;48.464;8.712;2023-03-07T16:11:44;9.65;;;5.07;;
25351;SDS011;13304;48.464;8.712;2023-03-07T16:14:29;11.40;;;5.40;;
25351;SDS011;13304;48.464;8.712;2023-03-07T16:16:58;9.27;;;5.35;;
25351;SDS011;13304;48.464;8.712;2023-03-07T16:19:30;9.73;;;5.47;;
25351;SDS011;13304;48.464;8.712;2023-03-07T16:21:56;9.90;;;5.63;;
25351;SDS011;13304;48.464;8.712;2023-03-07T16:24:22;8.20;;;4.90;;
25351;SDS011;13304;48.464;8.712;2023-03-07T16:26:47;9.98;;;5.22;;
25351;SDS011;13304;48.464;8.712;2023-03-07T16:29:17;11.95;;;5.50;;
25351;SDS011;13304;48.464;8.712;2023-03-07T16:31:44;14.10;;;6.03;;
25351;SDS011;13304;48.464;8.712;2023-03-07T16:34:14;12.07;;;5.13;;
25351;SDS011;13304;48.464;8.712;2023-03-07T16:36:45;19.83;;;6.10;;
25351;SDS011;13304;48.464;8.712;2023-03-07T16:39:14;20.02;;;6.45;;
25351;SDS011;13304;48.464;8.712;2023-03-07T16:41:43;11.60;;;6.10;;
25351;SDS011;13304;48.464;8.712;2023-03-07T16:44:15;14.02;;;5.90;;
25351;SDS011;13304;48.464;8.712;2023-03-07T16:46:42;13.63;;;5.57;;
25351;SDS011;13304;48.464;8.712;2023-03-07T16:49:14;18.60;;;6.05;;
25351;SDS011;13304;48.464;8.712;2023-03-07T16:51:42;15.00;;;6.75;;
25351;SDS011;13304;48.464;8.712;2023-03-07T16:54:08;11.88;;;5.93;;
25351;SDS011;13304;48.464;8.712;2023-03-07T16:56:38;10.18;;;5.95;;
25351;SDS011;13304;48.464;8.712;2023-03-07T16:59:08;11.82;;;5.88;;
25351;SDS011;13304;48.464;8.712;2023-03-07T17:01:41;9.25;;;5.50;;
25351;SDS011;13304;48.464;8.712;2023-03-07T17:04:10;12.15;;;5.90;;
25351;SDS011;13304;48.464;8.712;2023-03-07T17:06:36;12.75;;;5.80;;
25351;SDS011;13304;48.464;8.712;2023-03-07T17:09:03;15.13;;;5.88;;
25351;SDS011;13304;48.464;8.712;2023-03-07T17:11:30;12.57;;;5.53;;
25351;SDS011;13304;48.464;8.712;2023-03-07T17:13:57;18.88;;;6.38;;
25351;SDS011;13304;48.464;8.712;2023-03-07T17:16:24;11.43;;;5.93;;
25351;SDS011;13304;48.464;8.712;2023-03-07T17:18:51;10.35;;;5.47;;
25351;SDS011;13304;48.464;8.712;2023-03-07T17:21:18;18.45;;;6.22;;
25351;SDS011;13304;48.464;8.712;2023-03-07T17:23:46;12.82;;;6.55;;
25351;SDS011;13304;48.464;8.712;2023-03-07T17:29:03;11.90;;;6.30;;
25351;SDS011;13304;48.464;8.712;2023-03-07T17:31:33;13.18;;;5.95;;
25351;SDS011;13304;48.464;8.712;2023-03-07T17:33:59;8.77;;;5.63;;
25351;SDS011;13304;48.464;8.712;2023-03-07T17:36:25;9.45;;;5.43;;